Time;durP1;ratioP1;P1;durP2;ratioP2;P2;SDS_P1;SDS_P2;PMS_P1;PMS_P2;Temp;Humidity;BMP_temperature;BMP_pressure;BME280_temperature;BME280_humidity;BME280_pressure;Samples;Min_cycle;Max_cycle;Signal;HPM_P1;HPM_P2
2022/05/13 00:07:45;;;;;;;6.38;4.13;;;;;;;15.71;45.98;100318.91;30495075;28;105466;-67
2022/05/13 00:22:49;;;;;;;8.70;3.83;;;;;;;15.57;47.81;100316.16;30494213;28;97089;-67
2022/05/13 00:37:50;;;;;;;5.03;2.60;;;;;;;15.35;48.67;100301.16;30492739;28;97526;-67
2022/05/13 00:52:53;;;;;;;6.15;2.90;;;;;;;14.92;49.84;100295.97;30491430;28;97485;-67
2022/05/13 01:07:55;;;;;;;4.73;2.40;;;;;;;14.50;51.24;100285.97;30490234;28;96736;-67
2022/05/13 01:23:00;;;;;;;6.10;2.87;;;;;;;14.12;52.80;100274.66;30506959;28;97232;-67
2022/05/13 01:38:00;;;;;;;8.00;2.47;;;;;;;13.83;53.41;100271.94;30509576;28;96795;-68
2022/05/13 01:53:01;;;;;;;7.80;3.25;;;;;;;13.65;53.94;100247.41;30507800;28;109128;-67
2022/05/13 02:08:02;;;;;;;7.00;2.67;;;;;;;13.46;55.11;100259.56;30506561;28;97569;-67
2022/05/13 02:23:03;;;;;;;6.33;2.80;;;;;;;13.48;55.67;100247.66;30505221;28;97480;-67
2022/05/13 02:38:03;;;;;;;12.02;3.08;;;;;;;13.44;56.17;100243.69;30503497;28;96908;-67
2022/05/13 02:53:04;;;;;;;12.82;3.63;;;;;;;13.43;56.80;100242.03;30502127;28;101967;-68
2022/05/13 03:08:07;;;;;;;11.63;3.95;;;;;;;13.44;57.48;100235.66;30499068;28;96957;-67
2022/05/13 03:23:08;;;;;;;18.13;5.70;;;;;;;13.45;58.35;100240.00;30497317;28;96785;-67
2022/05/13 03:38:08;;;;;;;19.42;4.10;;;;;;;13.53;58.55;100237.22;30495574;28;96648;-67
2022/05/13 03:53:09;;;;;;;11.88;3.30;;;;;;;13.42;58.57;100237.69;30495127;28;96616;-67
2022/05/13 04:23:28;;;;;;;11.13;4.03;;;;;;;13.75;57.94;100236.41;30491565;28;97101;-68
2022/05/13 04:38:29;;;;;;;11.10;4.03;;;;;;;14.21;57.18;100247.59;30485619;28;96936;-68
2022/05/13 04:53:36;;;;;;;13.50;3.58;;;;;;;14.72;56.52;100261.78;30511490;28;103469;-68
2022/05/13 05:08:37;;;;;;;20.33;4.57;;;;;;;15.40;55.44;100253.09;30596051;28;97386;-68
2022/05/13 05:23:39;;;;;;;16.77;4.90;;;;;;;15.94;55.26;100235.31;30598465;28;97381;-67
2022/05/13 05:38:40;;;;;;;18.37;5.17;;;;;;;16.42;53.47;100245.03;30595380;28;97266;-68
2022/05/13 06:09:00;;;;;;;9.10;3.60;;;;;;;17.57;48.60;100244.53;30611522;28;97402;-70
2022/05/13 06:24:01;;;;;;;12.07;3.77;;;;;;;18.91;45.53;100254.34;30621520;28;97100;-70
2022/05/13 06:39:04;;;;;;;8.60;3.30;;;;;;;19.90;42.85;100253.38;30620393;28;96797;-69
2022/05/13 06:54:06;;;;;;;8.30;2.83;;;;;;;20.87;40.79;100248.69;30617865;28;97144;-70
2022/05/13 07:09:07;;;;;;;9.33;2.07;;;;;;;20.68;36.63;100237.16;30613867;28;97416;-69
2022/05/13 07:24:07;;;;;;;10.57;2.58;;;;;;;21.06;36.57;100224.13;30613699;28;96883;-69
2022/05/13 07:54:27;;;;;;;5.03;1.30;;;;;;;23.01;30.35;100210.34;30605085;28;97213;-71
2022/05/13 08:09:27;;;;;;;5.22;1.95;;;;;;;23.47;29.03;100196.50;30610166;28;96638;-70
2022/05/13 08:24:28;;;;;;;4.43;1.50;;;;;;;23.67;28.77;100190.44;30611071;28;97609;-69
2022/05/13 08:39:28;;;;;;;5.20;1.35;;;;;;;23.73;28.75;100156.78;30606755;28;96972;-69
2022/05/13 08:54:35;;;;;;;6.30;2.33;;;;;;;25.64;27.12;100147.69;30604815;28;109780;-70
2022/05/13 09:09:36;;;;;;;6.40;3.00;;;;;;;26.97;25.39;100137.59;30602920;28;96792;-69
2022/05/13 09:24:37;;;;;;;2.60;1.30;;;;;;;27.13;24.63;100121.09;30604921;28;97350;-74
2022/05/13 09:39:44;;;;;;;3.90;1.17;;;;;;;27.03;24.28;100106.38;30615548;28;96688;-74
2022/05/13 09:54:48;;;;;;;3.67;0.93;;;;;;;26.66;25.23;100091.25;30622178;28;96965;-72
2022/05/13 10:25:27;;;;;;;3.40;1.23;;;;;;;26.37;26.19;100036.50;30614298;28;97006;-69
2022/05/13 10:40:35;;;;;;;5.50;1.40;;;;;;;28.44;23.98;100002.78;30618230;28;96723;-69
2022/05/13 10:55:47;;;;;;;3.63;1.50;;;;;;;27.50;25.11;100008.47;30615165;28;96894;-69
2022/05/13 11:11:19;;;;;;;7.77;1.20;;;;;;;27.12;25.80;100023.78;30614396;28;97580;-67
2022/05/13 11:26:29;;;;;;;3.43;1.57;;;;;;;26.27;27.61;100014.69;30615783;28;96830;-74
2022/05/13 11:41:44;;;;;;;5.20;1.43;;;;;;;25.84;28.12;99988.59;30611676;28;97065;-72
2022/05/13 11:56:48;;;;;;;1.90;1.30;;;;;;;26.37;27.67;99972.84;30611392;28;97363;-72
2022/05/13 12:12:03;;;;;;;4.23;1.40;;;;;;;27.17;26.55;99960.84;30611191;28;96960;-71
2022/05/13 12:27:09;;;;;;;6.07;1.70;;;;;;;27.33;26.94;99935.00;30611112;28;96808;-72
2022/05/13 12:42:11;;;;;;;3.13;1.57;;;;;;;27.60;26.50;99925.47;30608351;28;96744;-71
2022/05/13 12:57:18;;;;;;;3.43;1.47;;;;;;;27.60;27.34;99925.47;30596284;28;96966;-70
2022/05/13 13:12:30;;;;;;;8.57;1.63;;;;;;;27.17;27.68;99928.06;30604201;28;97422;-72
2022/05/13 13:27:32;;;;;;;4.80;1.60;;;;;;;27.08;28.10;99918.84;30603764;28;96707;-73
2022/05/13 13:42:33;;;;;;;10.70;2.00;;;;;;;27.57;25.90;99909.63;30603534;28;97417;-71
2022/05/13 13:58:00;;;;;;;5.50;1.40;;;;;;;26.91;25.76;99897.41;30603099;28;96725;-74
2022/05/13 14:13:06;;;;;;;3.67;1.33;;;;;;;26.30;26.18;99900.28;30602583;28;97934;-75
2022/05/13 14:28:10;;;;;;;8.13;1.50;;;;;;;25.93;26.48;99915.19;30613742;28;98031;-71
2022/05/13 14:43:18;;;;;;;4.23;1.40;;;;;;;25.68;26.94;99908.72;30618915;28;97843;-69
2022/05/13 14:58:26;;;;;;;9.83;1.80;;;;;;;25.10;26.07;99900.09;30617349;28;97552;-68
2022/05/13 15:13:26;;;;;;;11.40;2.83;;;;;;;24.62;24.92;99936.59;30616762;28;97358;-69
2022/05/13 15:28:27;;;;;;;4.47;1.38;;;;;;;24.46;24.31;99929.44;30604963;28;97360;-68
2022/05/13 15:43:27;;;;;;;7.72;1.52;;;;;;;24.18;23.40;99956.06;30602680;28;98270;-70
2022/05/13 15:58:41;;;;;;;4.82;1.30;;;;;;;23.59;25.45;99967.94;30603960;28;97557;-69
2022/05/13 16:13:47;;;;;;;5.10;1.30;;;;;;;23.05;26.42;99977.03;30601230;28;98590;-69
2022/05/13 16:28:47;;;;;;;5.87;1.90;;;;;;;22.81;26.15;99988.22;30597984;28;97303;-68
2022/05/13 16:43:47;;;;;;;7.10;1.17;;;;;;;22.67;26.21;100014.16;30598442;28;97122;-68
2022/05/13 16:58:48;;;;;;;5.13;1.47;;;;;;;22.04;27.41;100039.66;30597060;28;97649;-69
2022/05/13 17:29:07;;;;;;;7.73;1.80;;;;;;;20.83;29.84;100078.81;30596300;28;97383;-68
2022/05/13 17:44:08;;;;;;;8.23;2.40;;;;;;;20.19;32.49;100110.22;30594385;28;100378;-68
2022/05/13 17:59:08;;;;;;;4.53;1.97;;;;;;;19.54;34.43;100135.38;30609747;28;97319;-67
2022/05/13 18:14:09;;;;;;;10.38;2.25;;;;;;;18.93;35.65;100170.44;30612404;28;97132;-67
2022/05/13 18:29:09;;;;;;;5.22;1.90;;;;;;;18.48;35.98;100189.59;30618386;28;97189;-67
2022/05/13 18:59:29;;;;;;;3.30;1.77;;;;;;;17.88;38.04;100256.41;30621196;28;97291;-69
2022/05/13 19:14:29;;;;;;;4.43;2.08;;;;;;;17.89;38.14;100289.56;30618518;28;96792;-75
2022/05/13 19:29:29;;;;;;;5.60;2.25;;;;;;;17.70;38.06;100307.47;30616449;28;98524;-74
2022/05/13 19:44:30;;;;;;;9.57;2.63;;;;;;;17.58;37.95;100318.94;30616728;28;96701;-74
2022/05/13 19:59:30;;;;;;;4.78;2.00;;;;;;;17.29;37.65;100338.28;30609443;28;113453;-78
2022/05/13 20:14:31;;;;;;;3.50;2.35;;;;;;;16.95;37.88;100356.34;30610185;28;97449;-73
2022/05/13 20:29:32;;;;;;;5.60;2.30;;;;;;;16.56;38.13;100362.31;30621097;28;96991;-73
2022/05/13 20:44:32;;;;;;;4.63;2.50;;;;;;;16.19;39.17;100383.34;30594054;28;97307;-77
2022/05/13 20:59:33;;;;;;;4.30;2.20;;;;;;;15.93;39.92;100391.31;30574806;28;96822;-79
2022/05/13 21:14:34;;;;;;;4.88;2.30;;;;;;;15.51;40.65;100408.25;30599666;28;96921;-75
2022/05/13 21:29:36;;;;;;;6.27;2.20;;;;;;;15.22;41.13;100412.78;30600724;28;97285;-75
2022/05/13 21:44:36;;;;;;;6.30;2.60;;;;;;;14.87;41.63;100418.09;30618743;28;96788;-75
2022/05/13 21:59:37;;;;;;;6.57;2.58;;;;;;;14.72;42.56;100428.88;30618348;28;98530;-76
2022/05/13 22:14:38;;;;;;;7.83;2.60;;;;;;;14.52;43.28;100431.34;30618051;28;97265;-75
2022/05/13 22:29:38;;;;;;;4.85;2.20;;;;;;;14.24;44.02;100454.50;30615159;28;97252;-76
2022/05/13 22:44:39;;;;;;;4.22;2.58;;;;;;;14.03;44.78;100456.13;30610229;28;97619;-76
2022/05/13 22:59:39;;;;;;;6.38;2.45;;;;;;;13.72;45.90;100473.19;30647822;28;97492;-77
2022/05/13 23:14:40;;;;;;;7.45;3.00;;;;;;;12.89;48.97;100478.44;30650809;28;97074;-75
2022/05/13 23:29:40;;;;;;;10.13;3.67;;;;;;;12.28;50.51;100486.31;30739854;28;96727;-75
2022/05/13 23:44:40;;;;;;;6.68;3.35;;;;;;;12.27;50.78;100473.97;30740116;28;99880;-75
2022/05/13 23:59:43;;;;;;;4.88;3.13;;;;;;;12.17;51.33;100464.31;30737384;28;97349;-77
